createdAt,value
2023-03-22T00:00:59.918Z,20.70
2023-03-22T00:03:28.679Z,19.13
2023-03-22T00:06:01.384Z,16.27
2023-03-22T00:08:29.940Z,19.60
2023-03-22T00:10:58.528Z,23.70
2023-03-22T00:13:27.097Z,15.80
2023-03-22T00:15:57.719Z,20.80
2023-03-22T00:18:26.380Z,18.73
2023-03-22T00:20:56.205Z,17.23
2023-03-22T00:23:26.377Z,11.40
2023-03-22T00:25:58.058Z,13.87
2023-03-22T00:28:26.649Z,15.33
2023-03-22T00:30:56.026Z,16.70
2023-03-22T00:33:24.628Z,14.50
2023-03-22T00:35:53.969Z,23.10
2023-03-22T00:38:29.928Z,19.60
2023-03-22T00:41:11.184Z,22.90
2023-03-22T00:43:39.835Z,20.10
2023-03-22T00:46:08.859Z,16.30
2023-03-22T00:48:37.513Z,16.10
2023-03-22T00:51:06.815Z,19.47
2023-03-22T00:53:36.484Z,22.83
2023-03-22T00:56:06.079Z,16.23
2023-03-22T00:58:36.062Z,19.90
2023-03-22T01:01:04.743Z,20.20
2023-03-22T01:03:34.970Z,19.53
2023-03-22T01:06:03.669Z,23.63
2023-03-22T01:08:33.555Z,23.00
2023-03-22T01:11:02.765Z,21.83
2023-03-22T01:13:31.360Z,21.43
2023-03-22T01:16:01.308Z,16.10
2023-03-22T01:18:29.901Z,21.17
2023-03-22T01:20:58.509Z,18.30
2023-03-22T01:23:27.149Z,20.13
2023-03-22T01:25:55.702Z,17.97
2023-03-22T01:28:26.912Z,21.43
2023-03-22T01:30:56.056Z,19.63
2023-03-22T01:33:26.069Z,18.83
2023-03-22T01:35:55.005Z,19.70
2023-03-22T01:38:23.573Z,16.50
2023-03-22T01:40:52.137Z,17.87
2023-03-22T01:43:20.962Z,19.00
2023-03-22T01:45:50.019Z,18.70
2023-03-22T01:48:23.024Z,18.93
2023-03-22T01:50:59.803Z,19.57
2023-03-22T01:53:28.378Z,19.10
2023-03-22T01:55:57.360Z,17.27
2023-03-22T01:58:25.893Z,17.50
2023-03-22T02:00:54.513Z,17.67
2023-03-22T02:03:27.561Z,18.40
2023-03-22T02:05:57.981Z,22.93
2023-03-22T02:08:26.583Z,17.77
2023-03-22T02:10:55.109Z,17.40
2023-03-22T02:13:31.920Z,18.80
2023-03-22T02:16:06.501Z,19.60
2023-03-22T02:18:41.621Z,14.83
2023-03-22T02:21:29.125Z,14.93
2023-03-22T02:24:27.435Z,16.90
2023-03-22T02:27:16.196Z,18.80
2023-03-22T02:29:46.208Z,15.03
2023-03-22T02:32:37.528Z,14.27
2023-03-22T02:35:38.495Z,24.77
2023-03-22T02:38:28.310Z,20.57
2023-03-22T02:40:59.722Z,16.80
2023-03-22T02:43:34.271Z,25.00
2023-03-22T02:46:06.216Z,19.87
2023-03-22T02:48:37.090Z,13.80
2023-03-22T02:51:06.733Z,19.10
2023-03-22T02:53:36.481Z,20.87
2023-03-22T02:56:07.094Z,18.33
2023-03-22T02:58:37.022Z,22.17
2023-03-22T03:01:08.040Z,17.03
2023-03-22T03:03:37.691Z,23.17
2023-03-22T03:06:09.969Z,17.97
2023-03-22T03:08:38.843Z,20.73
2023-03-22T03:11:09.203Z,18.53
2023-03-22T03:13:37.739Z,21.30
2023-03-22T03:16:07.880Z,25.00
2023-03-22T03:18:40.861Z,19.67
2023-03-22T03:21:14.786Z,21.57
2023-03-22T03:23:49.627Z,23.73
2023-03-22T03:26:23.185Z,22.60
2023-03-22T03:28:56.654Z,19.10
2023-03-22T03:31:32.365Z,20.73
2023-03-22T03:34:04.791Z,18.50
2023-03-22T03:36:33.638Z,21.53
2023-03-22T03:39:02.241Z,20.80
2023-03-22T03:41:32.168Z,29.93
2023-03-22T03:44:01.012Z,18.13
2023-03-22T03:46:30.236Z,21.97
2023-03-22T03:48:59.087Z,20.23
2023-03-22T03:51:29.746Z,20.60
2023-03-22T03:53:58.326Z,24.20
2023-03-22T03:56:27.030Z,23.43
2023-03-22T03:58:58.289Z,26.73
2023-03-22T04:01:28.556Z,25.50
2023-03-22T04:03:57.229Z,22.70
2023-03-22T04:06:25.833Z,23.90
2023-03-22T04:08:56.679Z,22.33
2023-03-22T04:11:25.428Z,21.50
2023-03-22T04:13:53.934Z,25.63
2023-03-22T04:16:25.093Z,22.13
2023-03-22T04:18:53.733Z,21.43
2023-03-22T04:21:22.830Z,24.87
2023-03-22T04:23:51.451Z,29.83
2023-03-22T04:26:20.516Z,32.00
2023-03-22T04:28:49.125Z,26.83
2023-03-22T04:31:18.419Z,24.07
2023-03-22T04:33:49.798Z,30.40
2023-03-22T04:36:18.396Z,31.93
2023-03-22T04:38:46.982Z,26.17
2023-03-22T04:41:15.564Z,31.63
2023-03-22T04:43:47.101Z,28.63
2023-03-22T04:46:15.915Z,27.73
2023-03-22T04:48:44.523Z,31.20
2023-03-22T04:51:14.535Z,24.60
2023-03-22T04:53:43.115Z,29.57
2023-03-22T04:56:12.599Z,28.70
2023-03-22T04:58:42.505Z,23.20
2023-03-22T05:01:11.487Z,28.30
2023-03-22T05:03:42.978Z,26.70
2023-03-22T05:06:13.116Z,31.90
2023-03-22T05:08:42.817Z,28.77
2023-03-22T05:11:12.989Z,26.03
2023-03-22T05:13:41.681Z,23.77
2023-03-22T05:16:10.751Z,22.60
2023-03-22T05:18:45.586Z,24.87
2023-03-22T05:21:16.005Z,25.70
2023-03-22T05:23:44.771Z,24.33
2023-03-22T05:26:15.590Z,24.73
2023-03-22T05:28:44.250Z,23.07
2023-03-22T05:31:14.692Z,28.20
2023-03-22T05:33:44.040Z,23.37
2023-03-22T05:36:14.276Z,24.40
2023-03-22T05:38:44.701Z,24.80
2023-03-22T05:41:13.252Z,28.67
2023-03-22T05:43:41.944Z,22.77
2023-03-22T05:46:11.227Z,25.57
2023-03-22T05:48:39.927Z,25.87
2023-03-22T05:51:09.642Z,30.73
2023-03-22T05:53:39.629Z,24.87
2023-03-22T05:56:09.975Z,27.27
2023-03-22T05:58:39.726Z,31.23
2023-03-22T06:01:09.069Z,25.43
2023-03-22T06:03:37.618Z,23.53
2023-03-22T06:06:10.619Z,24.33
2023-03-22T06:08:40.932Z,25.83
2023-03-22T06:11:09.537Z,28.00
2023-03-22T06:13:38.678Z,27.50
2023-03-22T06:16:34.340Z,27.97
2023-03-22T06:22:51.740Z,24.60
2023-03-22T06:25:53.660Z,26.73
2023-03-22T06:28:22.327Z,26.03
2023-03-22T06:30:51.001Z,23.27
2023-03-22T06:33:19.785Z,22.10
2023-03-22T06:35:48.453Z,21.50
2023-03-22T06:38:17.108Z,21.37
2023-03-22T06:40:47.112Z,19.47
2023-03-22T06:43:15.780Z,19.67
2023-03-22T06:45:44.493Z,24.37
2023-03-22T06:48:13.250Z,20.33
2023-03-22T06:50:44.324Z,21.63
2023-03-22T06:53:13.159Z,21.63
2023-03-22T06:55:42.001Z,18.57
2023-03-22T06:58:11.981Z,19.40
2023-03-22T07:00:41.488Z,18.43
2023-03-22T07:03:10.240Z,17.80
2023-03-22T07:05:38.854Z,15.13
2023-03-22T07:08:08.418Z,15.67
2023-03-22T07:10:37.143Z,20.93
2023-03-22T07:13:05.760Z,17.53
2023-03-22T07:15:35.765Z,18.43
2023-03-22T07:18:04.515Z,16.70
2023-03-22T07:20:36.881Z,23.33
2023-03-22T07:23:05.620Z,17.53
2023-03-22T07:25:34.179Z,14.00
2023-03-22T07:28:02.804Z,19.33
2023-03-22T07:30:31.428Z,16.10
2023-03-22T07:33:01.578Z,14.53
2023-03-22T07:35:30.289Z,14.13
2023-03-22T07:37:59.485Z,15.03
2023-03-22T07:40:28.232Z,13.37
2023-03-22T07:42:56.860Z,14.37
2023-03-22T07:45:25.514Z,14.67
2023-03-22T07:47:54.132Z,10.90
2023-03-22T07:50:24.159Z,14.30
2023-03-22T07:52:52.822Z,11.53
2023-03-22T07:55:21.469Z,15.67
2023-03-22T07:57:50.030Z,16.47
2023-03-22T08:00:19.185Z,13.70
2023-03-22T08:02:47.849Z,14.77
2023-03-22T08:05:17.032Z,15.03
2023-03-22T08:07:47.052Z,14.53
2023-03-22T08:10:16.001Z,12.80
2023-03-22T08:12:44.620Z,11.90
2023-03-22T08:15:13.201Z,12.03
2023-03-22T08:17:41.845Z,11.53
2023-03-22T08:20:12.908Z,11.80
2023-03-22T08:22:42.447Z,9.93
2023-03-22T08:25:12.627Z,10.53
2023-03-22T08:27:41.273Z,11.00
2023-03-22T08:30:11.060Z,10.00
2023-03-22T08:32:39.956Z,11.03
2023-03-22T08:35:09.625Z,12.77
2023-03-22T08:37:38.214Z,13.80
2023-03-22T08:40:10.379Z,11.83
2023-03-22T08:42:40.412Z,12.87
2023-03-22T08:45:10.404Z,9.50
2023-03-22T08:47:39.014Z,8.10
2023-03-22T08:50:09.252Z,11.27
2023-03-22T08:52:37.859Z,15.03
2023-03-22T08:55:08.295Z,9.33
2023-03-22T08:57:38.890Z,13.77
2023-03-22T09:00:11.991Z,10.23
2023-03-22T09:02:40.927Z,9.30
2023-03-22T09:05:10.104Z,11.50
2023-03-22T09:07:38.785Z,16.33
2023-03-22T09:10:08.599Z,8.40
2023-03-22T09:12:37.221Z,12.80
2023-03-22T09:15:07.549Z,8.07
2023-03-22T09:17:37.557Z,9.53
2023-03-22T09:20:12.710Z,12.10
2023-03-22T09:22:41.864Z,8.70
2023-03-22T09:25:12.947Z,9.50
2023-03-22T09:27:42.068Z,8.80
2023-03-22T09:30:11.624Z,8.97
2023-03-22T09:32:41.639Z,10.80
2023-03-22T09:35:10.620Z,10.27
2023-03-22T09:37:39.260Z,11.50
2023-03-22T09:40:09.368Z,10.50
2023-03-22T09:42:39.705Z,13.17
2023-03-22T09:45:12.733Z,9.23
2023-03-22T09:47:45.474Z,8.23
2023-03-22T09:50:15.325Z,11.40
2023-03-22T09:52:44.005Z,9.00
2023-03-22T09:55:19.456Z,11.30
2023-03-22T09:57:50.430Z,9.43
2023-03-22T10:00:21.836Z,11.87
2023-03-22T10:02:59.227Z,12.33
2023-03-22T10:05:30.978Z,8.60
2023-03-22T10:08:06.734Z,11.40
2023-03-22T10:10:35.364Z,10.10
2023-03-22T10:13:07.654Z,8.93
2023-03-22T10:15:38.353Z,11.70
2023-03-22T10:18:09.268Z,7.77
2023-03-22T10:20:40.083Z,10.00
2023-03-22T10:23:10.924Z,10.07
2023-03-22T10:25:41.004Z,9.23
2023-03-22T10:28:17.914Z,6.90
2023-03-22T10:30:47.124Z,13.50
2023-03-22T10:33:20.496Z,7.47
2023-03-22T10:35:49.157Z,9.67
2023-03-22T10:38:20.940Z,8.50
2023-03-22T10:40:49.553Z,6.77
2023-03-22T10:43:21.411Z,6.90
2023-03-22T10:45:50.020Z,11.60
2023-03-22T10:48:25.987Z,8.23
2023-03-22T10:50:54.600Z,7.30
2023-03-22T10:53:27.960Z,9.30
2023-03-22T10:55:56.604Z,9.27
2023-03-22T10:58:29.721Z,11.83
2023-03-22T11:00:59.698Z,7.80
2023-03-22T11:03:31.742Z,6.73
2023-03-22T11:06:01.993Z,7.53
2023-03-22T11:08:30.608Z,9.27
2023-03-22T11:11:00.315Z,5.53
2023-03-22T11:13:28.983Z,6.70
2023-03-22T11:15:59.636Z,6.93
2023-03-22T11:18:32.216Z,6.70
2023-03-22T11:21:02.384Z,7.10
2023-03-22T11:23:32.389Z,8.13
2023-03-22T11:26:02.048Z,6.00
2023-03-22T11:28:34.061Z,7.10
2023-03-22T11:31:05.234Z,5.80
2023-03-22T11:33:35.308Z,5.20
2023-03-22T11:36:04.828Z,5.10
2023-03-22T11:38:37.857Z,6.43
2023-03-22T11:41:08.456Z,5.47
2023-03-22T11:43:37.785Z,7.13
2023-03-22T11:46:07.997Z,7.37
2023-03-22T11:48:39.204Z,6.83
2023-03-22T11:51:09.619Z,11.40
2023-03-22T11:53:40.008Z,7.50
2023-03-22T11:56:10.319Z,6.60
2023-03-22T11:58:56.330Z,6.33
2023-03-22T12:01:32.180Z,7.50
2023-03-22T12:04:02.986Z,5.87
2023-03-22T12:06:33.458Z,4.87
2023-03-22T12:09:04.155Z,6.40
2023-03-22T12:11:35.390Z,12.23
2023-03-22T12:14:06.486Z,5.50
2023-03-22T12:16:37.578Z,6.43
2023-03-22T12:19:13.995Z,7.40
2023-03-22T12:21:42.899Z,6.20
2023-03-22T12:24:17.888Z,5.13
2023-03-22T12:26:46.848Z,5.47
2023-03-22T12:29:18.236Z,4.93
2023-03-22T12:31:59.736Z,4.80
2023-03-22T12:34:35.581Z,4.20
2023-03-22T12:37:04.444Z,4.20
2023-03-22T12:39:35.133Z,4.20
2023-03-22T12:42:05.260Z,5.43
2023-03-22T12:44:35.584Z,6.10
2023-03-22T12:47:06.403Z,5.40
2023-03-22T12:49:40.468Z,4.40
2023-03-22T12:52:15.282Z,4.50
2023-03-22T12:54:43.843Z,3.87
2023-03-22T12:57:12.418Z,4.10
2023-03-22T12:59:41.087Z,6.97
2023-03-22T13:02:15.538Z,7.40
2023-03-22T13:04:56.709Z,7.90
2023-03-22T13:07:41.016Z,3.87
2023-03-22T13:10:47.257Z,7.77
2023-03-22T13:13:33.368Z,4.20
2023-03-22T13:16:03.797Z,4.70
2023-03-22T13:18:38.847Z,3.77
2023-03-22T13:21:13.686Z,3.33
2023-03-22T13:24:21.804Z,3.43
2023-03-22T13:26:52.759Z,2.73
2023-03-22T13:29:22.482Z,1.97
2023-03-22T13:31:58.348Z,2.47
2023-03-22T13:34:37.540Z,3.20
2023-03-22T13:37:10.971Z,2.53
2023-03-22T13:39:40.819Z,4.20
2023-03-22T13:42:17.401Z,2.53
2023-03-22T13:44:47.059Z,3.17
2023-03-22T13:47:32.426Z,7.20
2023-03-22T13:50:04.880Z,3.90
2023-03-22T13:52:43.272Z,2.73
2023-03-22T13:55:38.505Z,6.00
2023-03-22T13:58:08.874Z,2.50
2023-03-22T14:00:54.637Z,4.97
2023-03-22T14:03:27.720Z,2.83
2023-03-22T14:06:04.246Z,6.10
2023-03-22T14:08:34.274Z,2.63
2023-03-22T14:11:05.028Z,2.30
2023-03-22T14:13:36.296Z,5.90
2023-03-22T14:16:07.931Z,1.90
2023-03-22T14:18:37.449Z,2.30
2023-03-22T14:21:07.875Z,2.00
